Impacts TAF Board INFO
FOR SITUATIONAL AWARENESS. NOT TO BE USED FOR FLIGHT PLANNING PURPOSES.
IDs:

KSEA - Seattle-Tacoma Intl, WA, US

Issued at 1357 UTC 25 Feb 2018
Updated at 1538 UTC 25 Feb 2018
Potential Impact None Slight Moderate High
Time1453Z 25/16Z 25/17Z 25/18Z 25/19Z 25/20Z 25/21Z 25/22Z 25/23Z 26/00Z 26/01Z 26/02Z 26/03Z 26/04Z>>
Type OBS PRVL PRVL PRVL PRVL PRVL PRVL PRVL PRVL PRVL PRVL PRVL PRVL PRVL
VIS 10 >6 >6 >6 >6 >6 >6 >6 >6 >6 >6 >6 >6 >6
CIG 9 10 10 35 35 35 35 35 35 35 35 40 40 40
Cover OVC OVC OVC BKN BKN BKN BKN BKN BKN BKN BKN BKN BKN BKN
FltCat IFR MVFR MVFR VFR VFR VFR VFR VFR VFR VFR VFR VFR VFR VFR
WX -- -RA -RA VCSH VCSH VCSH VCSH VCSH VCSH VCSH VCSH -- -- --
WDir 180 220 220 220 220 220 220 220 220 220 220 190 190 190
WSpd 17 19 19 14 14 14 14 14 14 14 14 8 8 8
WGst 22 27 27 -- -- -- -- -- -- -- -- -- -- --

Raw TAF
KSEA 251357Z 2514/2618 22019G27KT P6SM -RA BKN010 OVC020
  FM251800 22014KT P6SM VCSH SCT020 BKN035
  FM260200 19008KT P6SM SCT020 BKN040
  FM260800 17007KT P6SM BKN020 OVC030


Raw METAR
KSEA 251453Z 18017G22KT 10SM BKN009 OVC014 04/04 A2983 RMK AO2 PK WND 20026/1359 SLP110 60011 T00440044 56024
KSEA 251353Z 19019G27KT 10SM FEW007 BKN011 OVC016 05/04 A2984 RMK AO2 PK WND 19030/1333 RAE47 SLP113 P0006 T00500044
KSEA 251316Z 20016G22KT 7SM -RA FEW007 BKN011 OVC020 05/04 A2986 RMK AO2 PK WND 19026/1255 P0004 T00500044
KSEA 251253Z 20017G25KT 7SM -RA BKN013 OVC021 05/04 A2986 RMK AO2 RAB1154 SLP121 P0005 T00500044

METAR Board
Radar Display
Forecast Discussion

FOR SITUATIONAL AWARENESS. NOT TO BE USED FOR FLIGHT PLANNING PURPOSES.